Time;durP1;ratioP1;P1;durP2;ratioP2;P2;SDS_P1;SDS_P2;PMS_P1;PMS_P2;Temp;Humidity;BMP_temperature;BMP_pressure;BME280_temperature;BME280_humidity;BME280_pressure;Samples;Min_cycle;Max_cycle;Signal;HPM_P1;HPM_P2
2022/07/30 00:01:19;;;;;;;7.28;3.75;;;;;;;15.89;100.00;101772.56;6204572;23;20026;-77
2022/07/30 00:03:47;;;;;;;8.50;5.07;;;;;;;15.88;100.00;101776.13;6208670;23;20028;-77
2022/07/30 00:06:19;;;;;;;5.85;4.30;;;;;;;15.86;100.00;101777.91;6197498;23;20017;-77
2022/07/30 00:08:47;;;;;;;8.07;5.22;;;;;;;15.84;100.00;101779.69;6183455;23;20025;-78
2022/07/30 00:11:16;;;;;;;5.82;4.30;;;;;;;15.82;100.00;101773.47;6203529;23;20021;-77
2022/07/30 00:13:44;;;;;;;6.30;4.40;;;;;;;15.79;100.00;101766.41;6161241;23;20017;-77
2022/07/30 00:16:13;;;;;;;9.48;4.72;;;;;;;15.76;100.00;101769.09;6171418;23;20032;-77
2022/07/30 00:18:41;;;;;;;6.03;4.53;;;;;;;15.74;100.00;101767.31;6182464;23;20021;-77
2022/07/30 00:21:10;;;;;;;6.68;5.03;;;;;;;15.72;100.00;101769.91;6181022;23;20028;-77
2022/07/30 00:23:47;;;;;;;8.35;4.50;;;;;;;15.70;100.00;101762.84;6185687;23;20013;-77
2022/07/30 00:26:29;;;;;;;6.30;4.30;;;;;;;15.68;100.00;101764.63;6181050;23;20039;-78
2022/07/30 00:28:57;;;;;;;7.22;4.88;;;;;;;15.64;100.00;101765.53;6155795;23;20023;-77
2022/07/30 00:31:26;;;;;;;7.60;4.72;;;;;;;15.63;100.00;101756.66;6170351;23;20318;-78
2022/07/30 00:33:54;;;;;;;7.32;4.90;;;;;;;15.62;100.00;101759.34;6183829;23;20486;-78
2022/07/30 00:36:23;;;;;;;6.28;4.85;;;;;;;15.59;100.00;101758.47;6151540;23;20048;-78
2022/07/30 00:38:52;;;;;;;6.95;4.63;;;;;;;15.57;100.00;101751.38;6169415;23;20451;-78
2022/07/30 00:41:22;;;;;;;5.18;4.43;;;;;;;15.55;100.00;101762.00;6179839;23;20235;-78
2022/07/30 00:43:51;;;;;;;5.40;4.35;;;;;;;15.53;100.00;101758.47;6163125;23;20021;-77
2022/07/30 00:46:19;;;;;;;6.32;4.35;;;;;;;15.51;100.00;101757.59;6195942;23;20447;-78
2022/07/30 00:48:48;;;;;;;6.38;4.38;;;;;;;15.50;100.00;101753.19;6186134;23;20037;-78
2022/07/30 00:51:16;;;;;;;5.78;4.70;;;;;;;15.48;100.00;101760.28;6182610;23;20017;-78
2022/07/30 00:53:45;;;;;;;4.90;4.40;;;;;;;15.45;100.00;101754.97;6179809;23;20024;-78
2022/07/30 00:56:14;;;;;;;8.70;4.78;;;;;;;15.44;100.00;101753.19;6180961;23;20028;-78
2022/07/30 00:58:43;;;;;;;6.60;4.65;;;;;;;15.44;100.00;101753.19;6149590;23;20024;-78
2022/07/30 01:01:13;;;;;;;7.57;5.10;;;;;;;15.44;100.00;101750.53;6163276;23;20020;-78
2022/07/30 01:03:41;;;;;;;10.02;5.72;;;;;;;15.45;100.00;101749.66;6183606;23;20021;-78
2022/07/30 01:06:10;;;;;;;5.30;4.80;;;;;;;15.45;100.00;101746.13;6196946;23;20028;-78
2022/07/30 01:08:42;;;;;;;5.68;5.18;;;;;;;15.45;100.00;101748.78;6168397;23;20039;-78
2022/07/30 01:11:10;;;;;;;7.78;5.25;;;;;;;15.44;100.00;101741.69;6172492;23;20017;-78
2022/07/30 01:13:43;;;;;;;8.57;5.18;;;;;;;15.41;100.00;101750.56;6184252;23;20020;-78
2022/07/30 01:16:13;;;;;;;7.85;5.05;;;;;;;15.40;100.00;101751.41;6161657;23;20021;-78
2022/07/30 01:21:38;;;;;;;5.63;5.05;;;;;;;15.35;100.00;101742.59;6181295;23;20371;-78
2022/07/30 01:24:28;;;;;;;7.38;4.90;;;;;;;15.30;100.00;101742.59;6207468;23;20028;-78
2022/07/30 01:26:59;;;;;;;5.70;5.10;;;;;;;15.27;100.00;101745.25;6184199;23;20017;-78
2022/07/30 01:29:31;;;;;;;7.22;4.93;;;;;;;15.25;100.00;101740.84;6180533;23;20052;-78
2022/07/30 01:32:01;;;;;;;6.43;5.32;;;;;;;15.24;100.00;101739.09;6180885;23;20021;-78
2022/07/30 01:34:33;;;;;;;7.85;5.57;;;;;;;15.20;100.00;101744.38;6180522;23;20481;-78
2022/07/30 01:37:04;;;;;;;6.10;5.00;;;;;;;15.18;100.00;101739.97;6185877;23;20021;-78
2022/07/30 01:39:33;;;;;;;8.45;5.38;;;;;;;15.16;100.00;101734.66;6176867;23;20397;-78
2022/07/30 01:42:04;;;;;;;7.30;6.22;;;;;;;15.13;100.00;101737.31;6184518;23;20020;-78
2022/07/30 01:44:33;;;;;;;5.47;4.97;;;;;;;15.11;100.00;101741.75;6177527;23;20238;-78
2022/07/30 01:47:03;;;;;;;6.45;5.10;;;;;;;15.09;100.00;101730.25;6182747;23;20378;-78
2022/07/30 01:49:33;;;;;;;;;;;;;;;15.07;100.00;101732.03;6168263;23;20017;-78
2022/07/30 01:52:03;;;;;;;6.32;5.72;;;;;;;15.06;100.00;101735.56;6182768;23;20357;-78
2022/07/30 01:54:32;;;;;;;6.20;5.35;;;;;;;15.04;100.00;101732.03;6182008;23;20043;-78
2022/07/30 01:57:03;;;;;;;6.50;5.37;;;;;;;15.03;100.00;101730.28;6178492;23;20024;-78
2022/07/30 01:59:34;;;;;;;6.32;5.35;;;;;;;15.01;100.00;101737.34;6179982;23;20056;-78
2022/07/30 02:02:02;;;;;;;7.07;5.35;;;;;;;14.99;100.00;101728.50;6184183;23;20021;-78
2022/07/30 02:04:33;;;;;;;9.15;5.78;;;;;;;14.98;100.00;101732.91;6162803;23;20017;-78
2022/07/30 02:07:09;;;;;;;9.50;5.82;;;;;;;14.97;100.00;101724.94;6183357;23;20342;-78
2022/07/30 02:09:50;;;;;;;7.60;5.38;;;;;;;14.95;100.00;101716.09;6182192;23;20295;-78
2022/07/30 02:12:28;;;;;;;5.97;5.38;;;;;;;14.92;100.00;101705.50;6174758;23;20363;-77
2022/07/30 02:15:16;;;;;;;5.95;5.35;;;;;;;14.91;100.00;101719.66;6177461;23;20044;-78
2022/07/30 02:17:58;;;;;;;6.10;5.32;;;;;;;14.88;100.00;101717.03;6186720;23;20031;-78
2022/07/30 02:20:28;;;;;;;6.93;4.90;;;;;;;14.86;100.00;101717.00;6187126;23;20222;-78
2022/07/30 02:23:04;;;;;;;6.07;4.95;;;;;;;14.84;100.00;101724.09;6178137;23;20020;-78
2022/07/30 02:25:37;;;;;;;5.97;5.35;;;;;;;14.82;100.00;101707.28;6182119;23;20214;-78
2022/07/30 02:28:11;;;;;;;5.60;5.03;;;;;;;14.81;100.00;101708.16;6178508;23;20025;-78
2022/07/30 02:30:55;;;;;;;10.45;5.55;;;;;;;14.80;100.00;101709.03;6185434;23;20325;-78
2022/07/30 02:33:36;;;;;;;7.57;5.40;;;;;;;14.77;100.00;101712.59;6179803;23;20024;-78
2022/07/30 02:36:18;;;;;;;6.68;5.10;;;;;;;14.75;100.00;101708.16;6138028;23;20021;-78
2022/07/30 02:38:50;;;;;;;6.88;5.38;;;;;;;14.74;100.00;101712.56;6185326;23;20021;-78
2022/07/30 02:41:22;;;;;;;6.32;5.57;;;;;;;14.71;100.00;101709.94;6182303;23;20013;-78
2022/07/30 02:43:53;;;;;;;6.32;5.35;;;;;;;14.70;100.00;101709.94;6169492;23;20026;-77
2022/07/30 02:46:24;;;;;;;6.47;5.47;;;;;;;14.71;100.00;101706.41;6204590;23;20235;-78
2022/07/30 02:49:21;;;;;;;8.27;6.07;;;;;;;14.69;100.00;101709.06;6134545;23;20454;-78
2022/07/30 02:51:50;;;;;;;7.68;6.25;;;;;;;14.67;100.00;101716.13;6148934;23;20025;-78
2022/07/30 02:54:23;;;;;;;7.72;6.57;;;;;;;14.65;100.00;101707.28;6177909;23;20017;-78
2022/07/30 02:56:56;;;;;;;7.18;6.20;;;;;;;14.64;100.00;101707.28;6148891;23;20419;-78
2022/07/30 02:59:28;;;;;;;7.88;5.78;;;;;;;14.61;100.00;101705.50;6172298;23;20505;-77
2022/07/30 03:01:58;;;;;;;7.93;5.32;;;;;;;14.60;100.00;101712.59;6173872;23;20029;-77
2022/07/30 03:04:27;;;;;;;5.95;5.38;;;;;;;14.58;100.00;101708.16;6178592;23;20017;-77
2022/07/30 03:06:57;;;;;;;7.22;6.13;;;;;;;14.57;100.00;101714.34;6153275;23;20587;-77
2022/07/30 03:09:29;;;;;;;6.60;6.00;;;;;;;14.54;100.00;101711.69;6178995;23;20390;-77
2022/07/30 03:12:19;;;;;;;8.52;5.57;;;;;;;14.52;100.00;101716.97;6179027;23;20024;-77
2022/07/30 03:14:48;;;;;;;10.27;6.75;;;;;;;14.49;100.00;101716.09;6180278;23;20324;-77
2022/07/30 03:17:18;;;;;;;7.57;6.32;;;;;;;14.47;100.00;101712.56;6180337;23;20020;-77
2022/07/30 03:19:48;;;;;;;7.90;6.30;;;;;;;14.45;100.00;101709.88;6183186;23;20021;-77
2022/07/30 03:22:18;;;;;;;7.00;6.40;;;;;;;14.43;100.00;101712.53;6135870;23;20069;-78
2022/07/30 03:24:48;;;;;;;;;;;;;;;14.41;100.00;101711.66;6182120;23;20021;-76
2022/07/30 03:27:17;;;;;;;7.78;6.43;;;;;;;14.39;100.00;101707.25;6131131;23;20230;-78
2022/07/30 03:29:47;;;;;;;10.32;6.50;;;;;;;14.37;100.00;101717.84;6158003;23;20020;-78
2022/07/30 03:32:16;;;;;;;8.77;6.65;;;;;;;14.35;100.00;101713.44;6163658;23;20025;-77
2022/07/30 03:34:46;;;;;;;13.05;7.65;;;;;;;14.35;100.00;101722.25;6158189;23;20013;-76
2022/07/30 03:37:15;;;;;;;8.93;7.75;;;;;;;14.37;100.00;101707.22;6163980;23;20032;-76
2022/07/30 03:39:44;;;;;;;8.50;7.60;;;;;;;14.36;100.00;101715.19;6145688;23;20902;-77
2022/07/30 03:42:14;;;;;;;10.65;7.47;;;;;;;14.33;100.00;101716.06;6178967;23;20029;-76
2022/07/30 03:44:44;;;;;;;8.68;7.78;;;;;;;14.32;100.00;101716.94;6182153;23;20009;-77
2022/07/30 03:47:15;;;;;;;10.80;8.07;;;;;;;14.31;100.00;101712.53;6149488;23;20464;-78
2022/07/30 03:49:48;;;;;;;8.52;7.70;;;;;;;14.31;100.00;101715.19;6174751;23;20351;-78
2022/07/30 03:52:19;;;;;;;10.52;7.85;;;;;;;14.32;100.00;101711.63;6178067;23;20379;-77
2022/07/30 03:54:47;;;;;;;;;;;;;;;14.32;100.00;101710.75;6182448;23;20013;-77
2022/07/30 03:57:19;;;;;;;9.63;7.68;;;;;;;14.32;100.00;101716.94;6167208;23;19916;-77
2022/07/30 03:59:50;;;;;;;9.65;8.00;;;;;;;14.31;100.00;101712.53;6178735;23;20021;-76
2022/07/30 04:02:21;;;;;;;8.38;7.47;;;;;;;14.31;100.00;101716.94;6171409;23;20553;-76
2022/07/30 04:05:01;;;;;;;8.73;7.20;;;;;;;14.30;100.00;101716.06;6181893;23;20470;-77
2022/07/30 04:07:30;;;;;;;9.27;8.45;;;;;;;14.32;100.00;101719.59;6177875;23;20016;-76
2022/07/30 04:09:58;;;;;;;12.05;8.73;;;;;;;14.34;100.00;101724.91;6162788;23;20045;-77
2022/07/30 04:13:02;;;;;;;13.75;10.10;;;;;;;14.37;100.00;101735.53;6190878;23;20031;-77
2022/07/30 04:15:48;;;;;;;13.80;9.27;;;;;;;14.40;100.00;101732.84;6157224;23;20021;-77
2022/07/30 04:18:41;;;;;;;10.77;9.67;;;;;;;14.41;100.00;101735.53;6178293;23;20016;-77
2022/07/30 04:21:13;;;;;;;10.50;9.15;;;;;;;14.43;100.00;101733.75;6155846;23;20249;-77
2022/07/30 04:23:47;;;;;;;11.55;9.20;;;;;;;14.48;100.00;101727.56;6174433;23;20305;-78
2022/07/30 04:26:34;;;;;;;10.20;9.15;;;;;;;14.51;100.00;101728.44;6165895;23;20490;-78
2022/07/30 04:29:07;;;;;;;12.45;9.02;;;;;;;14.57;100.00;101728.50;6207173;23;20473;-78
2022/07/30 04:31:38;;;;;;;11.48;9.18;;;;;;;14.64;100.00;101729.38;6171668;23;20020;-77
2022/07/30 04:34:51;;;;;;;10.15;9.13;;;;;;;14.77;100.00;101741.75;6171902;23;20206;-78
2022/07/30 04:37:40;;;;;;;12.10;8.75;;;;;;;14.82;100.00;101755.94;6171060;23;20605;-78
2022/07/30 04:40:09;;;;;;;10.15;9.15;;;;;;;14.87;100.00;101744.44;6172337;23;20028;-77
2022/07/30 04:42:37;;;;;;;11.77;9.90;;;;;;;14.92;100.00;101748.84;6172440;23;20202;-77
2022/07/30 04:45:10;;;;;;;10.65;9.57;;;;;;;15.01;100.00;101750.63;6172451;23;20013;-77
2022/07/30 04:47:52;;;;;;;13.45;12.05;;;;;;;15.37;100.00;101747.00;6177996;23;20024;-77
2022/07/30 04:50:45;;;;;;;13.27;11.23;;;;;;;16.03;100.00;101747.69;6161491;23;20021;-77
2022/07/30 04:53:18;;;;;;;12.77;11.45;;;;;;;16.63;100.00;101749.97;6178249;23;20017;-78
2022/07/30 04:55:54;;;;;;;12.30;11.00;;;;;;;17.23;100.00;101741.50;6182410;23;20017;-77
2022/07/30 04:58:27;;;;;;;10.70;9.73;;;;;;;17.84;100.00;101745.22;6154855;23;20031;-77
2022/07/30 05:00:57;;;;;;;11.68;9.68;;;;;;;18.43;100.00;101734.66;6181820;23;20041;-77
2022/07/30 05:03:30;;;;;;;10.35;8.80;;;;;;;18.98;100.00;101744.47;6168963;23;20028;-77
2022/07/30 05:06:00;;;;;;;8.38;7.47;;;;;;;19.48;100.00;101739.97;6157583;23;20346;-77
2022/07/30 05:08:31;;;;;;;7.65;6.95;;;;;;;20.00;100.00;101739.81;6174467;23;20485;-77
2022/07/30 05:11:04;;;;;;;9.25;8.10;;;;;;;20.51;100.00;101739.56;6171041;23;20025;-77
2022/07/30 05:13:33;;;;;;;12.07;7.88;;;;;;;20.98;100.00;101739.28;6157368;23;20312;-77
2022/07/30 05:16:09;;;;;;;9.90;7.47;;;;;;;21.39;100.00;101734.63;6196471;23;20013;-77
2022/07/30 05:18:37;;;;;;;7.80;7.03;;;;;;;21.79;100.00;101737.06;6174585;23;20021;-77
2022/07/30 05:21:06;;;;;;;8.15;6.95;;;;;;;22.18;100.00;101735.91;6156187;23;20473;-77
2022/07/30 05:23:37;;;;;;;7.47;6.78;;;;;;;22.54;100.00;101739.25;6181708;23;20707;-77
2022/07/30 05:26:18;;;;;;;9.38;7.20;;;;;;;22.93;100.00;101741.56;6168457;23;20021;-77
2022/07/30 05:28:48;;;;;;;7.35;6.75;;;;;;;23.28;100.00;101744.81;6153050;23;20024;-77
2022/07/30 05:31:29;;;;;;;7.55;5.65;;;;;;;23.60;100.00;101745.47;6143848;23;20143;-77
2022/07/30 05:34:02;;;;;;;9.30;6.50;;;;;;;23.92;99.13;101741.59;6168934;23;20462;-77
2022/07/30 05:36:43;;;;;;;11.60;6.38;;;;;;;24.15;97.22;101742.50;6181616;23;20024;-77
2022/07/30 05:39:15;;;;;;;7.05;6.35;;;;;;;24.37;95.26;101749.75;6154777;23;20024;-77
2022/07/30 05:41:53;;;;;;;10.82;7.22;;;;;;;24.32;93.25;101736.44;6174894;23;20021;-77
2022/07/30 05:44:35;;;;;;;7.68;6.20;;;;;;;24.28;93.11;101734.81;6158401;23;20251;-78
2022/07/30 05:47:03;;;;;;;9.40;6.40;;;;;;;24.32;91.85;101731.94;6181524;23;20020;-77
2022/07/30 05:49:32;;;;;;;9.25;6.40;;;;;;;24.37;90.45;101734.44;6176197;23;20013;-77
2022/07/30 05:52:07;;;;;;;9.02;6.78;;;;;;;24.47;89.48;101734.94;6182796;23;20048;-77
2022/07/30 05:54:36;;;;;;;10.35;6.75;;;;;;;24.49;88.58;101744.72;6182003;23;20245;-77
2022/07/30 05:57:04;;;;;;;9.13;7.50;;;;;;;24.45;87.09;101747.59;6175280;23;20025;-77
2022/07/30 05:59:35;;;;;;;12.65;7.30;;;;;;;24.50;85.45;101746.47;6205709;23;20040;-77
2022/07/30 06:02:05;;;;;;;7.85;7.05;;;;;;;24.46;84.39;101750.25;6155657;23;20025;-77
2022/07/30 06:04:52;;;;;;;13.27;7.93;;;;;;;24.11;84.50;101743.56;6171719;23;20036;-77
2022/07/30 06:07:21;;;;;;;11.43;7.47;;;;;;;23.75;84.68;101741.31;6178689;23;20316;-77
2022/07/30 06:09:52;;;;;;;11.52;7.32;;;;;;;23.51;84.94;101753.88;6180204;23;20298;-76
2022/07/30 06:12:20;;;;;;;9.23;7.22;;;;;;;23.25;85.12;101755.72;6199739;23;20028;-77
2022/07/30 06:14:49;;;;;;;12.90;7.50;;;;;;;22.97;85.51;101759.31;6183690;23;20032;-77
2022/07/30 06:17:24;;;;;;;8.75;7.18;;;;;;;22.75;85.69;101752.91;6123837;23;20521;-77
2022/07/30 06:20:07;;;;;;;10.73;7.65;;;;;;;22.52;86.29;101756.38;6147091;23;20016;-77
2022/07/30 06:22:48;;;;;;;8.65;7.47;;;;;;;22.37;86.60;101755.03;6183604;23;20032;-77
2022/07/30 06:25:23;;;;;;;15.70;7.55;;;;;;;22.16;86.98;101760.13;6178269;23;20138;-77
2022/07/30 06:27:52;;;;;;;9.95;8.30;;;;;;;21.92;87.25;101763.53;6173863;23;20021;-77
2022/07/30 06:30:20;;;;;;;11.27;7.40;;;;;;;21.74;88.58;101763.16;6178303;23;20294;-77
2022/07/30 06:32:59;;;;;;;13.27;9.50;;;;;;;21.69;89.54;101764.22;6162007;23;20021;-77
2022/07/30 06:35:28;;;;;;;16.08;9.98;;;;;;;21.66;90.62;101765.16;6164229;23;20238;-77
2022/07/30 06:37:56;;;;;;;10.25;8.10;;;;;;;21.64;91.37;101763.47;6183787;23;20021;-77
2022/07/30 06:40:40;;;;;;;9.38;7.95;;;;;;;21.54;90.52;101763.72;6174309;23;20479;-77
2022/07/30 06:43:17;;;;;;;11.85;8.80;;;;;;;21.52;91.07;101775.44;6179348;23;20101;-77
2022/07/30 06:46:21;;;;;;;15.00;9.25;;;;;;;21.51;91.58;101779.03;6185478;23;20544;-77
2022/07/30 06:48:52;;;;;;;8.85;7.80;;;;;;;21.49;91.45;101775.50;6155565;23;20024;-77
2022/07/30 06:51:21;;;;;;;10.63;7.40;;;;;;;21.45;91.29;101774.69;6163159;23;20119;-77
2022/07/30 06:53:49;;;;;;;9.73;7.18;;;;;;;21.41;91.96;101768.50;6184172;23;20021;-77
2022/07/30 06:56:37;;;;;;;11.02;7.95;;;;;;;21.43;92.53;101777.38;6172891;23;20127;-77
2022/07/30 06:59:08;;;;;;;11.95;7.65;;;;;;;21.45;93.32;101780.06;6180618;23;20482;-77
2022/07/30 07:02:05;;;;;;;12.50;8.85;;;;;;;21.48;93.98;101776.44;6154216;23;20061;-77
2022/07/30 07:04:45;;;;;;;10.35;8.60;;;;;;;21.48;93.99;101771.06;6162659;23;20032;-77
2022/07/30 07:07:14;;;;;;;20.60;8.60;;;;;;;21.48;94.29;101768.41;6164493;23;20028;-77
2022/07/30 07:10:03;;;;;;;12.90;8.93;;;;;;;21.52;94.82;101764.69;6148024;23;20029;-77
2022/07/30 07:12:41;;;;;;;12.68;8.48;;;;;;;21.54;94.98;101770.91;6174424;23;20028;-77
2022/07/30 07:15:09;;;;;;;12.55;7.75;;;;;;;21.51;94.68;101774.56;6176558;23;20025;-76
2022/07/30 07:17:40;;;;;;;16.80;8.60;;;;;;;21.49;95.06;101762.09;6180417;23;20217;-77
2022/07/30 07:20:27;;;;;;;13.15;8.52;;;;;;;21.47;95.90;101774.66;6159280;23;20336;-77
2022/07/30 07:23:03;;;;;;;11.55;7.90;;;;;;;21.49;95.53;101764.78;6168034;23;20351;-77
2022/07/30 07:25:40;;;;;;;11.02;7.72;;;;;;;21.50;94.96;101764.75;6181669;23;20025;-77
2022/07/30 07:28:09;;;;;;;9.30;7.65;;;;;;;21.52;94.95;101770.06;6180196;23;20017;-77
2022/07/30 07:30:44;;;;;;;8.00;6.78;;;;;;;21.51;94.85;101763.84;6173171;23;20014;-77
2022/07/30 07:33:14;;;;;;;11.13;7.70;;;;;;;21.56;95.03;101763.69;6170046;23;20040;-77
2022/07/30 07:35:46;;;;;;;13.23;8.35;;;;;;;21.63;95.88;101770.66;6162608;23;20035;-77
2022/07/30 07:38:25;;;;;;;11.40;7.85;;;;;;;21.68;96.28;101773.19;6172518;23;20302;-77
2022/07/30 07:40:55;;;;;;;13.60;8.95;;;;;;;21.73;96.84;101769.44;6182826;23;20021;-77
2022/07/30 07:43:24;;;;;;;16.88;9.18;;;;;;;21.79;97.06;101777.31;6202272;23;20490;-77
2022/07/30 07:45:55;;;;;;;11.40;8.63;;;;;;;21.82;96.62;101772.81;6182891;23;20359;-77
2022/07/30 07:48:26;;;;;;;17.63;9.50;;;;;;;21.83;96.78;101766.50;6167779;23;20013;-77
2022/07/30 07:51:02;;;;;;;13.18;9.90;;;;;;;21.84;96.35;101769.13;6138084;23;20021;-77
2022/07/30 07:53:37;;;;;;;9.30;8.40;;;;;;;21.79;96.80;101777.31;6151548;23;20298;-77
2022/07/30 07:56:07;;;;;;;11.15;8.98;;;;;;;21.82;96.98;101772.81;6173428;23;20017;-77
2022/07/30 07:58:36;;;;;;;15.15;9.20;;;;;;;21.81;97.33;101766.53;6172784;23;20021;-77
2022/07/30 08:01:12;;;;;;;11.57;8.57;;;;;;;21.82;97.35;101764.75;6166402;23;20302;-77
2022/07/30 08:04:00;;;;;;;11.65;8.55;;;;;;;21.87;97.60;101765.47;6187797;23;20127;-77
2022/07/30 08:06:50;;;;;;;11.15;7.32;;;;;;;21.85;96.41;101772.69;6150074;23;20021;-77
2022/07/30 08:09:37;;;;;;;11.05;7.47;;;;;;;21.85;95.68;101764.66;6199059;23;20040;-79
2022/07/30 08:12:26;;;;;;;11.32;7.82;;;;;;;21.94;95.91;101767.06;6193747;23;20025;-78
2022/07/30 08:15:24;;;;;;;10.32;8.07;;;;;;;22.00;95.60;101769.56;6079288;23;20019;-77
2022/07/30 08:18:24;;;;;;;9.55;7.50;;;;;;;22.02;95.24;101769.50;6138644;23;20021;-77
2022/07/30 08:21:09;;;;;;;11.35;7.82;;;;;;;22.04;95.23;101773.94;6175583;23;20020;-76
2022/07/30 08:23:38;;;;;;;9.88;7.50;;;;;;;22.09;95.69;101768.41;6156802;23;20021;-76
2022/07/30 08:26:10;;;;;;;12.63;7.43;;;;;;;22.13;94.17;101770.06;6177377;23;20323;-77
2022/07/30 08:28:39;;;;;;;12.52;6.32;;;;;;;22.18;93.69;101766.31;6176066;23;20013;-76
2022/07/30 08:31:08;;;;;;;15.10;6.82;;;;;;;22.24;92.80;101776.00;6157801;23;20021;-77
2022/07/30 08:33:36;;;;;;;10.32;6.50;;;;;;;22.26;92.20;101770.59;6200822;23;20399;-77
2022/07/30 08:36:06;;;;;;;10.05;5.90;;;;;;;22.31;91.90;101774.03;6141802;23;20032;-77
2022/07/30 08:38:38;;;;;;;11.90;5.95;;;;;;;22.35;91.40;101773.00;6143486;23;20024;-77
2022/07/30 08:41:08;;;;;;;9.20;6.55;;;;;;;22.37;90.25;101776.53;6165416;23;20021;-78
2022/07/30 08:43:36;;;;;;;8.38;6.40;;;;;;;22.39;90.42;101778.22;6152168;23;20028;-77
2022/07/30 08:46:09;;;;;;;9.90;6.00;;;;;;;22.42;90.23;101779.06;6180263;23;20028;-78
2022/07/30 08:48:47;;;;;;;9.50;6.05;;;;;;;22.42;89.75;101785.31;6159999;23;20024;-77
2022/07/30 08:51:18;;;;;;;10.70;6.55;;;;;;;22.43;89.39;101776.31;6166042;23;20241;-77
2022/07/30 08:54:12;;;;;;;9.43;6.07;;;;;;;22.44;89.19;101770.03;6176304;23;20040;-77
2022/07/30 08:56:43;;;;;;;11.00;5.77;;;;;;;22.50;89.84;101774.34;6142658;23;20024;-77
2022/07/30 08:59:12;;;;;;;8.47;5.67;;;;;;;22.57;89.27;101774.09;6174865;23;20021;-76
2022/07/30 09:01:40;;;;;;;6.80;5.45;;;;;;;22.64;89.13;101773.88;6183395;23;20256;-76
2022/07/30 09:04:09;;;;;;;6.15;4.68;;;;;;;22.69;89.55;101763.88;6193554;23;20029;-77
2022/07/30 09:06:39;;;;;;;9.98;5.43;;;;;;;22.74;89.15;101776.22;6170286;23;20210;-77
2022/07/30 09:09:10;;;;;;;10.43;5.07;;;;;;;22.78;88.77;101777.00;6154633;23;20371;-77
2022/07/30 09:11:41;;;;;;;7.57;5.13;;;;;;;22.79;88.61;101778.75;6172935;23;20024;-77
2022/07/30 09:14:12;;;;;;;7.55;5.38;;;;;;;22.80;89.93;101772.47;6145101;23;20026;-78
2022/07/30 09:16:42;;;;;;;8.18;4.65;;;;;;;22.84;89.63;101774.09;6175699;23;20302;-78
2022/07/30 09:19:12;;;;;;;;;;;;;;;22.90;89.74;101781.94;6176208;23;20024;-77
2022/07/30 09:21:41;;;;;;;8.60;5.00;;;;;;;22.94;90.39;101786.28;6194142;23;19931;-77
2022/07/30 09:24:23;;;;;;;11.07;5.18;;;;;;;23.02;89.83;101782.47;6139536;23;20051;-77
2022/07/30 09:27:21;;;;;;;8.00;5.13;;;;;;;23.09;90.88;101787.63;6135391;23;20032;-77
2022/07/30 09:29:58;;;;;;;11.93;5.15;;;;;;;23.08;89.94;101775.13;6171994;23;20044;-77
2022/07/30 09:32:55;;;;;;;8.60;4.88;;;;;;;23.14;89.91;101776.72;6185234;23;20017;-78
2022/07/30 09:35:42;;;;;;;12.15;5.80;;;;;;;23.22;89.59;101780.00;6181014;23;20021;-77
2022/07/30 09:38:11;;;;;;;6.95;4.50;;;;;;;23.37;91.08;101775.03;6170141;23;20332;-77
2022/07/30 09:41:03;;;;;;;17.10;4.93;;;;;;;23.55;90.09;101786.00;6173510;23;20021;-77
2022/07/30 09:43:53;;;;;;;9.43;3.90;;;;;;;23.57;91.06;101785.06;6184764;23;20021;-77
2022/07/30 09:46:45;;;;;;;7.70;4.18;;;;;;;23.52;91.52;101787.94;6175705;23;20659;-80
2022/07/30 09:49:27;;;;;;;7.47;4.45;;;;;;;23.48;91.47;101781.78;6176391;23;20028;-77
2022/07/30 09:51:57;;;;;;;5.97;3.70;;;;;;;23.51;91.79;101778.09;6185318;23;20017;-77
2022/07/30 09:54:47;;;;;;;8.38;3.78;;;;;;;23.60;91.95;101780.44;6152276;23;21066;-77
2022/07/30 09:57:24;;;;;;;6.50;3.60;;;;;;;23.68;91.88;101782.84;6141950;23;20231;-78
2022/07/30 10:00:21;;;;;;;13.07;4.07;;;;;;;23.68;91.47;101785.53;6162387;23;20024;-78
2022/07/30 10:03:15;;;;;;;7.28;3.42;;;;;;;23.57;91.53;101783.22;6160820;23;20458;-78
2022/07/30 10:06:34;;;;;;;11.93;3.55;;;;;;;23.46;91.44;101789.03;6179118;23;20347;-78
2022/07/30 10:09:24;;;;;;;9.02;5.15;;;;;;;23.38;90.37;101783.03;6143435;23;20021;-81
2022/07/30 10:12:02;;;;;;;5.45;3.40;;;;;;;23.31;90.49;101790.44;6154023;23;20032;-78
2022/07/30 10:14:36;;;;;;;6.07;3.30;;;;;;;23.28;90.06;101782.47;6176738;23;20021;-78
2022/07/30 10:17:16;;;;;;;5.85;3.35;;;;;;;23.27;90.19;101788.81;6168697;23;20028;-78
2022/07/30 10:20:07;;;;;;;9.68;3.83;;;;;;;23.22;88.88;101782.69;6180062;23;20478;-79
2022/07/30 10:22:57;;;;;;;9.10;3.50;;;;;;;23.35;89.84;101783.16;6112503;23;20032;-79
2022/07/30 10:25:37;;;;;;;5.00;2.95;;;;;;;23.58;89.37;101790.38;6149326;23;20343;-78
2022/07/30 10:28:42;;;;;;;7.28;3.30;;;;;;;23.85;88.79;101785.81;6181216;23;20470;-78
2022/07/30 10:31:11;;;;;;;5.32;2.85;;;;;;;24.04;88.22;101780.59;6184164;23;20025;-78
2022/07/30 10:34:00;;;;;;;5.82;3.25;;;;;;;24.21;87.30;101782.66;6179698;23;20032;-76
2022/07/30 10:36:30;;;;;;;6.60;3.70;;;;;;;24.28;86.50;101777.91;6176037;23;20120;-77
2022/07/30 10:39:00;;;;;;;7.60;3.38;;;;;;;24.33;85.23;101794.78;6178617;23;20024;-77
2022/07/30 10:41:29;;;;;;;7.10;3.10;;;;;;;24.34;84.60;101793.81;6182673;23;20056;-78
2022/07/30 10:44:42;;;;;;;6.22;2.92;;;;;;;24.23;83.10;101785.28;6178376;23;20111;-77
2022/07/30 10:47:15;;;;;;;6.05;2.53;;;;;;;24.12;83.13;101797.38;6181449;23;20332;-79
2022/07/30 10:50:13;;;;;;;4.40;2.72;;;;;;;24.05;82.88;101792.28;6179747;23;20021;-78
2022/07/30 10:52:57;;;;;;;8.53;3.40;;;;;;;24.05;82.97;101793.16;6180657;23;20150;-78
2022/07/30 10:55:32;;;;;;;5.30;3.00;;;;;;;24.02;83.04;101793.25;6174926;23;20025;-78
2022/07/30 10:58:14;;;;;;;9.23;3.40;;;;;;;24.13;83.09;101795.53;6163820;23;20354;-78
2022/07/30 11:00:53;;;;;;;6.03;2.95;;;;;;;24.28;81.68;101788.69;6171737;23;20036;-78
2022/07/30 11:03:24;;;;;;;7.57;3.15;;;;;;;24.44;81.07;101794.31;6180812;23;20020;-79
2022/07/30 11:06:14;;;;;;;6.97;3.00;;;;;;;24.62;80.47;101799.00;6178698;23;20040;-78
2022/07/30 11:08:44;;;;;;;34.55;4.15;;;;;;;24.78;78.71;101796.56;6165183;23;20229;-77
2022/07/30 11:11:21;;;;;;;7.07;3.15;;;;;;;24.80;79.30;101792.00;6172541;23;20351;-80
2022/07/30 11:14:09;;;;;;;6.22;2.63;;;;;;;24.93;79.74;101792.34;6186521;23;20021;-81
2022/07/30 11:16:39;;;;;;;5.35;2.40;;;;;;;24.95;79.74;101790.47;6181253;23;20033;-78
2022/07/30 11:19:16;;;;;;;5.22;2.65;;;;;;;24.89;79.18;101796.97;6187628;23;20466;-79
2022/07/30 11:22:37;;;;;;;4.18;2.20;;;;;;;24.80;76.44;101789.31;6182377;23;20486;-78
2022/07/30 11:25:06;;;;;;;4.93;2.40;;;;;;;24.87;77.44;101796.16;6169789;23;20478;-79
2022/07/30 11:27:41;;;;;;;4.65;2.85;;;;;;;24.84;78.54;101798.13;6189275;23;20025;-80
2022/07/30 11:30:16;;;;;;;6.13;2.90;;;;;;;24.62;80.16;101803.53;6183528;23;20020;-79
2022/07/30 11:32:48;;;;;;;4.20;2.38;;;;;;;24.52;81.49;101797.66;6174593;23;20017;-79
2022/07/30 11:35:24;;;;;;;8.95;2.72;;;;;;;24.57;81.37;101801.00;6182284;23;20048;-79
2022/07/30 11:38:14;;;;;;;8.15;2.80;;;;;;;24.62;81.76;101798.16;6182910;23;20036;-79
2022/07/30 11:40:47;;;;;;;6.38;3.08;;;;;;;24.44;82.47;101800.63;6179583;23;20017;-79
2022/07/30 11:43:33;;;;;;;4.43;2.90;;;;;;;24.37;83.14;101804.47;6175485;23;20017;-78
2022/07/30 11:46:08;;;;;;;6.82;2.70;;;;;;;24.37;83.11;101799.09;6186931;23;20395;-79
2022/07/30 11:48:40;;;;;;;7.93;3.03;;;;;;;24.20;83.50;101807.84;6180873;23;20229;-78
2022/07/30 11:51:09;;;;;;;8.15;4.15;;;;;;;24.23;83.62;101806.84;6180707;23;20013;-79
2022/07/30 11:53:38;;;;;;;5.43;2.63;;;;;;;24.31;82.97;101799.34;6207456;23;20620;-78
2022/07/30 11:56:08;;;;;;;4.75;2.55;;;;;;;24.31;83.15;101796.66;6178710;23;20485;-79
2022/07/30 11:58:43;;;;;;;7.18;2.80;;;;;;;24.28;82.52;101800.31;6183911;23;20017;-82
2022/07/30 12:01:14;;;;;;;4.13;2.67;;;;;;;24.32;83.13;101798.41;6182359;23;20481;-80